KVSF/VSF METAR and TAF weather

Enter ICAO airport designator
Station Type Date Time Source
KVSF METAR 2020/03/31 08:54 UTC NOAA

KVSF 310854Z AUTO 07003KT 10SM BKN027 BKN032 OVC039 01/M02 A3007 RMK AO2 SLP191 T00061017 53002


Station Type Date Time Source
KVSF Decoded METAR 2020/03/31 08:54 UTC NOAA

HARTNESS STATE AIRPORT, VT, United States (KVSF) 43-21N 72-31W 175M
Mar 31, 2020 - 04:54 AM EDT / 2020.03.31 0854 UTC
Wind: from the ENE (070 degrees) at 3 MPH (3 KT):0
Visibility: 10 mile(s):0
Sky conditions: overcast
Temperature: 33.1 F (0.6 C)
Dew Point: 28.9 F (-1.7 C)
Relative Humidity: 84%
Pressure (altimeter): 30.07 in. Hg (1018 hPa)
Pressure tendency: 0.01 inches (0.2 hPa) higher than three hours ago
ob: KVSF 310854Z AUTO 07003KT 10SM BKN027 BKN032 OVC039 01/M02 A3007 RMK AO2 SLP191 T00061017 53002
cycle: 9

Station Type Date Time Source
KVSF TAF UTC NOAA

Error!

Example: see airport list